Time;durP1;ratioP1;P1;durP2;ratioP2;P2;SDS_P1;SDS_P2;PMS_P1;PMS_P2;Temp;Humidity;BMP_temperature;BMP_pressure;BME280_temperature;BME280_humidity;BME280_pressure;Samples;Min_cycle;Max_cycle;Signal;HPM_P1;HPM_P2
2022/08/23 00:02:07;;;;;;;1.10;1.10;;;;;;;;;;5052286;28;20226;-85
2022/08/23 00:04:39;;;;;;;0.73;0.73;;;;;;;;;;5051928;28;20206;-86
2022/08/23 00:07:10;;;;;;;1.30;1.20;;;;;;;;;;5051846;28;20201;-86
2022/08/23 00:09:38;;;;;;;1.40;1.30;;;;;;;;;;5052193;28;20213;-86
2022/08/23 00:12:13;;;;;;;1.00;1.00;;;;;;;;;;5051720;28;20253;-86
2022/08/23 00:14:45;;;;;;;1.30;1.20;;;;;;;;;;5052215;28;20224;-85
2022/08/23 00:17:13;;;;;;;1.65;1.50;;;;;;;;;;5051723;28;20701;-85
2022/08/23 00:19:42;;;;;;;1.60;1.33;;;;;;;;;;5052008;28;20233;-85
2022/08/23 00:22:10;;;;;;;2.35;1.60;;;;;;;;;;5051960;28;20256;-84
2022/08/23 00:24:38;;;;;;;2.78;1.77;;;;;;;;;;5051723;28;20245;-85
2022/08/23 00:27:11;;;;;;;1.40;1.30;;;;;;;;;;5051839;28;20777;-85
2022/08/23 00:29:41;;;;;;;2.35;1.50;;;;;;;;;;5052369;28;20555;-85
2022/08/23 00:32:13;;;;;;;1.77;1.30;;;;;;;;;;5052204;28;20711;-86
2022/08/23 00:34:42;;;;;;;2.38;1.30;;;;;;;;;;5052000;28;20233;-85
2022/08/23 00:37:11;;;;;;;1.42;1.33;;;;;;;;;;5051514;28;20221;-85
2022/08/23 00:39:39;;;;;;;1.20;1.20;;;;;;;;;;5051609;28;20649;-85
2022/08/23 00:47:39;;;;;;;1.63;1.50;;;;;;;;;;5051271;28;20320;-87
2022/08/23 00:50:15;;;;;;;1.30;1.20;;;;;;;;;;5051700;28;20732;-85
2022/08/23 00:52:50;;;;;;;1.70;1.45;;;;;;;;;;5051759;28;20211;-86
2022/08/23 00:55:18;;;;;;;1.38;1.27;;;;;;;;;;5051761;28;20196;-86
2022/08/23 00:57:47;;;;;;;2.58;2.08;;;;;;;;;;5051299;28;20228;-86
2022/08/23 01:00:15;;;;;;;1.30;1.20;;;;;;;;;;5051750;28;20232;-85
2022/08/23 01:02:44;;;;;;;1.20;1.15;;;;;;;;;;5051492;28;20202;-85
2022/08/23 01:05:12;;;;;;;1.30;1.20;;;;;;;;;;5051632;28;20244;-85
2022/08/23 01:07:48;;;;;;;1.33;1.25;;;;;;;;;;5052901;28;20686;-85
2022/08/23 01:10:22;;;;;;;1.63;1.52;;;;;;;;;;5055352;28;20267;-86
2022/08/23 01:12:56;;;;;;;1.80;1.52;;;;;;;;;;5055715;28;20229;-85
2022/08/23 01:15:27;;;;;;;1.60;1.50;;;;;;;;;;5055890;28;20229;-85
2022/08/23 01:18:03;;;;;;;3.80;2.33;;;;;;;;;;5055330;28;20212;-86
2022/08/23 01:20:42;;;;;;;1.58;1.48;;;;;;;;;;5055260;28;20310;-85
2022/08/23 01:23:31;;;;;;;1.42;1.33;;;;;;;;;;5055846;28;20236;-85
2022/08/23 01:25:58;;;;;;;2.28;1.48;;;;;;;;;;5054955;28;20592;-85
2022/08/23 01:28:26;;;;;;;2.50;1.52;;;;;;;;;;5054717;28;20706;-85
2022/08/23 01:30:54;;;;;;;1.77;1.60;;;;;;;;;;5055408;28;20633;-85
2022/08/23 01:33:21;;;;;;;1.55;1.45;;;;;;;;;;5055191;28;20285;-85
2022/08/23 01:35:52;;;;;;;1.75;1.65;;;;;;;;;;5054669;28;20238;-85
2022/08/23 01:38:22;;;;;;;2.28;1.50;;;;;;;;;;5054822;28;20202;-83
2022/08/23 01:40:50;;;;;;;1.80;1.60;;;;;;;;;;5054859;28;20225;-85
2022/08/23 01:43:20;;;;;;;1.42;1.33;;;;;;;;;;5054891;28;20732;-85
2022/08/23 01:45:49;;;;;;;2.88;1.92;;;;;;;;;;5054791;28;20225;-85
2022/08/23 01:48:17;;;;;;;1.88;1.77;;;;;;;;;;5054477;28;20236;-85
2022/08/23 01:50:45;;;;;;;2.55;1.48;;;;;;;;;;5054781;28;20260;-84
2022/08/23 01:53:13;;;;;;;1.73;1.60;;;;;;;;;;5054813;28;20320;-85
2022/08/23 01:55:44;;;;;;;1.70;1.60;;;;;;;;;;5054903;28;20240;-85
2022/08/23 01:58:12;;;;;;;1.45;1.35;;;;;;;;;;5055006;28;20217;-85
2022/08/23 02:00:43;;;;;;;2.05;1.95;;;;;;;;;;5054708;28;20685;-85
2022/08/23 02:03:12;;;;;;;2.17;1.42;;;;;;;;;;5054497;28;20205;-85
2022/08/23 02:05:40;;;;;;;2.47;1.40;;;;;;;;;;5054542;28;20256;-84
2022/08/23 02:10:55;;;;;;;1.40;1.30;;;;;;;;;;5053931;28;20240;-85
2022/08/23 02:13:22;;;;;;;2.00;1.40;;;;;;;;;;5054835;28;20208;-85
2022/08/23 02:15:51;;;;;;;2.08;1.50;;;;;;;;;;5054362;28;20201;-85
2022/08/23 02:18:19;;;;;;;1.48;1.38;;;;;;;;;;5053598;28;20308;-85
2022/08/23 02:20:49;;;;;;;1.73;1.63;;;;;;;;;;5053926;28;20214;-85
2022/08/23 02:23:17;;;;;;;1.50;1.40;;;;;;;;;;5054069;28;20206;-85
2022/08/23 02:25:45;;;;;;;1.95;1.85;;;;;;;;;;5054031;28;20636;-85
2022/08/23 02:28:14;;;;;;;1.42;1.33;;;;;;;;;;5053577;28;20237;-85
2022/08/23 02:30:41;;;;;;;1.40;1.30;;;;;;;;;;5053423;28;20217;-86
2022/08/23 02:33:09;;;;;;;1.30;1.13;;;;;;;;;;5053645;28;20251;-85
2022/08/23 02:35:37;;;;;;;1.55;1.30;;;;;;;;;;5053804;28;20236;-86
2022/08/23 02:38:05;;;;;;;1.50;1.40;;;;;;;;;;5053107;28;20221;-85
2022/08/23 02:40:34;;;;;;;1.30;1.20;;;;;;;;;;5053653;28;20709;-86
2022/08/23 02:43:01;;;;;;;1.45;1.35;;;;;;;;;;5053590;28;20636;-85
2022/08/23 02:45:30;;;;;;;1.38;1.27;;;;;;;;;;5053964;28;20244;-85
2022/08/23 02:47:58;;;;;;;1.67;1.40;;;;;;;;;;5053573;28;20288;-85
2022/08/23 02:50:27;;;;;;;1.20;1.10;;;;;;;;;;5053406;28;20221;-85
2022/08/23 02:52:55;;;;;;;2.03;1.63;;;;;;;;;;5053555;28;20280;-85
2022/08/23 02:55:22;;;;;;;1.73;1.63;;;;;;;;;;5053472;28;20643;-86
2022/08/23 02:57:50;;;;;;;2.25;1.90;;;;;;;;;;5053082;28;20314;-86
2022/08/23 03:00:19;;;;;;;2.17;1.70;;;;;;;;;;5053251;28;20565;-85
2022/08/23 03:02:48;;;;;;;1.63;1.40;;;;;;;;;;5053452;28;20382;-87
2022/08/23 03:05:16;;;;;;;1.15;1.05;;;;;;;;;;5053096;28;20244;-86
2022/08/23 03:07:44;;;;;;;1.10;1.10;;;;;;;;;;5053077;28;20233;-86
2022/08/23 03:10:12;;;;;;;1.00;1.00;;;;;;;;;;5053408;28;20289;-86
2022/08/23 03:12:40;;;;;;;1.75;1.30;;;;;;;;;;5053106;28;20237;-86
2022/08/23 03:15:09;;;;;;;0.98;0.98;;;;;;;;;;5052947;28;20225;-86
2022/08/23 03:17:36;;;;;;;1.50;1.30;;;;;;;;;;5052989;28;20309;-86
2022/08/23 03:20:07;;;;;;;1.65;1.10;;;;;;;;;;5052785;28;20207;-86
2022/08/23 03:22:36;;;;;;;1.20;1.10;;;;;;;;;;5052968;28;20275;-85
2022/08/23 03:25:05;;;;;;;2.05;1.45;;;;;;;;;;5052759;28;20208;-85
2022/08/23 03:27:33;;;;;;;2.63;1.98;;;;;;;;;;5052662;28;20288;-86
2022/08/23 03:30:00;;;;;;;1.42;1.33;;;;;;;;;;5052169;28;20205;-85
2022/08/23 03:32:28;;;;;;;1.60;1.50;;;;;;;;;;5052566;28;20745;-85
2022/08/23 03:34:56;;;;;;;2.22;1.52;;;;;;;;;;5052610;28;20206;-86
2022/08/23 03:37:25;;;;;;;1.23;1.13;;;;;;;;;;5052077;28;20324;-86
2022/08/23 03:39:53;;;;;;;1.17;1.17;;;;;;;;;;5052474;28;20205;-86
2022/08/23 03:42:20;;;;;;;2.08;1.00;;;;;;;;;;5052889;28;20643;-86
2022/08/23 03:44:48;;;;;;;1.23;1.20;;;;;;;;;;5052302;28;20765;-86
2022/08/23 03:47:15;;;;;;;0.90;0.90;;;;;;;;;;5051883;28;20198;-86
2022/08/23 03:49:43;;;;;;;1.20;1.10;;;;;;;;;;5051811;28;20224;-85
2022/08/23 03:52:12;;;;;;;1.00;1.00;;;;;;;;;;5052173;28;20650;-86
2022/08/23 03:54:41;;;;;;;0.93;0.93;;;;;;;;;;5052481;28;20624;-85
2022/08/23 03:57:11;;;;;;;1.67;1.27;;;;;;;;;;5052318;28;20289;-85
2022/08/23 03:59:41;;;;;;;1.00;1.00;;;;;;;;;;5052306;28;20213;-86
2022/08/23 04:02:09;;;;;;;1.85;1.30;;;;;;;;;;5052364;28;20218;-86
2022/08/23 04:04:37;;;;;;;1.00;1.00;;;;;;;;;;5051711;28;20217;-85
2022/08/23 04:07:05;;;;;;;0.90;0.90;;;;;;;;;;5052098;28;20204;-85
2022/08/23 04:09:32;;;;;;;1.48;1.40;;;;;;;;;;5052538;28;20284;-86
2022/08/23 04:12:02;;;;;;;1.10;1.10;;;;;;;;;;5051737;28;20664;-86
2022/08/23 04:14:29;;;;;;;1.27;0.90;;;;;;;;;;5052078;28;20222;-86
2022/08/23 04:16:57;;;;;;;1.05;1.02;;;;;;;;;;5052245;28;20304;-85
2022/08/23 04:19:24;;;;;;;3.03;1.63;;;;;;;;;;5051627;28;20784;-86
2022/08/23 04:21:53;;;;;;;1.13;1.13;;;;;;;;;;5051498;28;20308;-86
2022/08/23 04:24:20;;;;;;;0.90;0.90;;;;;;;;;;5052653;28;20284;-86
2022/08/23 04:26:48;;;;;;;0.98;0.98;;;;;;;;;;5052584;28;20229;-86
2022/08/23 04:29:17;;;;;;;1.20;1.10;;;;;;;;;;5052082;28;20577;-86
2022/08/23 04:31:45;;;;;;;0.80;0.80;;;;;;;;;;5051323;28;20649;-85
2022/08/23 04:34:15;;;;;;;1.20;1.10;;;;;;;;;;5052028;28;20284;-86
2022/08/23 04:36:44;;;;;;;1.15;1.05;;;;;;;;;;5051583;28;20285;-86
2022/08/23 04:39:12;;;;;;;1.30;1.20;;;;;;;;;;5051708;28;20776;-86
2022/08/23 04:44:27;;;;;;;1.50;1.13;;;;;;;;;;5056129;28;20201;-86
2022/08/23 04:46:55;;;;;;;1.33;1.23;;;;;;;;;;5059278;28;20204;-86
2022/08/23 04:49:22;;;;;;;1.27;1.17;;;;;;;;;;5056358;28;20255;-86
2022/08/23 04:51:50;;;;;;;1.38;1.27;;;;;;;;;;5055601;28;20216;-86
2022/08/23 04:54:18;;;;;;;2.38;1.50;;;;;;;;;;5055527;28;20661;-85
2022/08/23 04:56:45;;;;;;;1.67;1.58;;;;;;;;;;5055176;28;20288;-85
2022/08/23 04:59:13;;;;;;;1.50;1.40;;;;;;;;;;5055748;28;20681;-86
2022/08/23 05:01:42;;;;;;;1.50;1.40;;;;;;;;;;5055611;28;20308;-86
2022/08/23 05:04:10;;;;;;;1.27;1.23;;;;;;;;;;5055463;28;20640;-85
2022/08/23 05:06:37;;;;;;;1.58;1.20;;;;;;;;;;5055528;28;20206;-86
2022/08/23 05:09:05;;;;;;;1.42;1.40;;;;;;;;;;5055527;28;20265;-86
2022/08/23 05:11:33;;;;;;;1.50;1.40;;;;;;;;;;5055286;28;20607;-85
2022/08/23 05:14:00;;;;;;;1.20;1.10;;;;;;;;;;5054700;28;20201;-86
2022/08/23 05:16:28;;;;;;;1.40;1.30;;;;;;;;;;5055470;28;20293;-85
2022/08/23 05:18:57;;;;;;;1.48;1.38;;;;;;;;;;5055618;28;20305;-86
2022/08/23 05:21:25;;;;;;;2.75;1.98;;;;;;;;;;5054876;28;20652;-85
2022/08/23 05:23:53;;;;;;;1.40;1.30;;;;;;;;;;5055350;28;20201;-86
2022/08/23 05:26:21;;;;;;;1.50;1.40;;;;;;;;;;5054748;28;20744;-85
2022/08/23 05:28:50;;;;;;;1.50;1.40;;;;;;;;;;5055158;28;20288;-86
2022/08/23 05:31:20;;;;;;;1.73;1.25;;;;;;;;;;5054914;28;20764;-86
2022/08/23 05:33:48;;;;;;;1.60;1.50;;;;;;;;;;5054849;28;20205;-86
2022/08/23 05:36:18;;;;;;;1.48;1.38;;;;;;;;;;5054851;28;20587;-86
2022/08/23 05:38:46;;;;;;;1.67;1.33;;;;;;;;;;5054815;28;20309;-86
2022/08/23 05:41:15;;;;;;;1.30;1.20;;;;;;;;;;5054962;28;20274;-79
2022/08/23 05:43:43;;;;;;;1.35;1.23;;;;;;;;;;5054887;28;20571;-79
2022/08/23 05:46:13;;;;;;;1.95;1.42;;;;;;;;;;5054825;28;20741;-79
2022/08/23 05:48:45;;;;;;;2.45;1.30;;;;;;;;;;5054929;28;20294;-78
2022/08/23 05:51:16;;;;;;;1.10;1.10;;;;;;;;;;5054611;28;20621;-79
2022/08/23 05:53:45;;;;;;;3.70;1.95;;;;;;;;;;5054136;28;20588;-79
2022/08/23 05:56:15;;;;;;;1.27;1.15;;;;;;;;;;5054461;28;20705;-78
2022/08/23 05:58:44;;;;;;;2.40;1.20;;;;;;;;;;5054459;28;20241;-79
2022/08/23 06:01:13;;;;;;;1.10;1.10;;;;;;;;;;5054267;28;20332;-79
2022/08/23 06:03:41;;;;;;;1.02;1.02;;;;;;;;;;5054346;28;20665;-79
2022/08/23 06:06:09;;;;;;;1.83;1.30;;;;;;;;;;5053873;28;20620;-79
2022/08/23 06:08:39;;;;;;;1.50;1.20;;;;;;;;;;5054112;28;20208;-78
2022/08/23 06:11:09;;;;;;;1.77;1.67;;;;;;;;;;5053977;28;20217;-79
2022/08/23 06:13:42;;;;;;;5.13;1.70;;;;;;;;;;5054054;28;20190;-79
2022/08/23 06:16:11;;;;;;;3.13;1.75;;;;;;;;;;5053954;28;20708;-78
2022/08/23 06:18:38;;;;;;;1.73;1.52;;;;;;;;;;5054028;28;20293;-78
2022/08/23 06:21:09;;;;;;;1.40;1.30;;;;;;;;;;5053660;28;20385;-78
2022/08/23 06:23:38;;;;;;;2.05;1.50;;;;;;;;;;5053963;28;20292;-79
2022/08/23 06:26:11;;;;;;;1.48;1.40;;;;;;;;;;5053761;28;20201;-78
2022/08/23 06:28:39;;;;;;;1.67;1.58;;;;;;;;;;5053795;28;20272;-79
2022/08/23 06:31:06;;;;;;;2.13;1.60;;;;;;;;;;5053516;28;20228;-78
2022/08/23 06:33:35;;;;;;;2.60;1.92;;;;;;;;;;5053314;28;20292;-77
2022/08/23 06:36:05;;;;;;;2.20;2.00;;;;;;;;;;5053412;28;20224;-78
2022/08/23 06:38:33;;;;;;;2.15;1.90;;;;;;;;;;5053969;28;20216;-78
2022/08/23 06:41:04;;;;;;;1.92;1.83;;;;;;;;;;5053633;28;20226;-79
2022/08/23 06:43:31;;;;;;;3.10;1.70;;;;;;;;;;5053670;28;20749;-79
2022/08/23 06:46:10;;;;;;;1.70;1.60;;;;;;;;;;5053442;28;20284;-79
2022/08/23 06:48:38;;;;;;;1.98;1.40;;;;;;;;;;5053599;28;20304;-79
2022/08/23 06:51:11;;;;;;;1.88;1.77;;;;;;;;;;5053624;28;20596;-79
2022/08/23 06:53:39;;;;;;;2.88;1.90;;;;;;;;;;5053480;28;20206;-78
2022/08/23 06:56:08;;;;;;;2.63;1.77;;;;;;;;;;5053478;28;20311;-80
2022/08/23 06:58:35;;;;;;;2.40;1.90;;;;;;;;;;5052496;28;20293;-79
2022/08/23 07:01:24;;;;;;;1.58;1.48;;;;;;;;;;5053299;28;20312;-79
2022/08/23 07:03:55;;;;;;;3.08;1.80;;;;;;;;;;5053488;28;20205;-78
2022/08/23 07:06:23;;;;;;;2.30;1.65;;;;;;;;;;5052177;28;20198;-79
2022/08/23 07:08:51;;;;;;;2.20;2.00;;;;;;;;;;5053136;28;20206;-80
2022/08/23 07:11:21;;;;;;;2.75;1.98;;;;;;;;;;5052997;28;20308;-79
2022/08/23 07:13:48;;;;;;;2.33;1.77;;;;;;;;;;5053102;28;20202;-79
2022/08/23 07:16:17;;;;;;;3.60;1.85;;;;;;;;;;5052802;28;20240;-78
2022/08/23 07:18:45;;;;;;;1.65;1.45;;;;;;;;;;5053355;28;20223;-79
2022/08/23 07:21:13;;;;;;;2.67;2.22;;;;;;;;;;5052498;28;20314;-79
2022/08/23 07:23:42;;;;;;;1.88;1.70;;;;;;;;;;5052797;28;20310;-78
2022/08/23 07:26:13;;;;;;;2.00;1.90;;;;;;;;;;5052874;28;20666;-78
2022/08/23 07:28:43;;;;;;;2.10;1.90;;;;;;;;;;5052871;28;20289;-78
2022/08/23 07:31:14;;;;;;;3.38;2.15;;;;;;;;;;5052798;28;20305;-79
2022/08/23 07:33:42;;;;;;;2.88;2.50;;;;;;;;;;5052745;28;20213;-79
2022/08/23 07:36:12;;;;;;;4.05;1.90;;;;;;;;;;5052397;28;20228;-79
2022/08/23 07:38:40;;;;;;;3.33;2.00;;;;;;;;;;5053429;28;20305;-79
2022/08/23 07:41:07;;;;;;;1.88;1.77;;;;;;;;;;5052372;28;20257;-78
2022/08/23 07:43:35;;;;;;;2.35;2.10;;;;;;;;;;5052511;28;20647;-79
2022/08/23 07:46:04;;;;;;;7.65;2.38;;;;;;;;;;5052797;28;20200;-79
2022/08/23 07:48:32;;;;;;;2.58;1.85;;;;;;;;;;5052150;28;20628;-80
2022/08/23 07:51:05;;;;;;;2.20;2.00;;;;;;;;;;5052356;28;20881;-80
2022/08/23 07:53:32;;;;;;;3.22;2.17;;;;;;;;;;5052504;28;20213;-79
2022/08/23 07:56:03;;;;;;;2.47;1.80;;;;;;;;;;5052657;28;20357;-78
2022/08/23 07:58:31;;;;;;;2.33;1.67;;;;;;;;;;5052442;28;20292;-79
2022/08/23 08:01:14;;;;;;;3.70;2.15;;;;;;;;;;5051982;28;20309;-80
2022/08/23 08:03:42;;;;;;;1.63;1.52;;;;;;;;;;5052826;28;20852;-80
2022/08/23 08:06:12;;;;;;;2.25;1.88;;;;;;;;;;5052323;28;20312;-78
2022/08/23 08:08:40;;;;;;;1.83;1.73;;;;;;;;;;5051996;28;20217;-79
2022/08/23 08:11:09;;;;;;;2.10;1.85;;;;;;;;;;5051388;28;20221;-80
2022/08/23 08:13:38;;;;;;;2.55;2.20;;;;;;;;;;5052022;28;20198;-79
2022/08/23 08:16:07;;;;;;;2.30;1.98;;;;;;;;;;5051711;28;20197;-79
2022/08/23 08:18:37;;;;;;;3.35;1.92;;;;;;;;;;5052109;28;20202;-79
2022/08/23 08:21:05;;;;;;;2.38;1.85;;;;;;;;;;5051641;28;20312;-79
2022/08/23 08:23:32;;;;;;;4.65;1.65;;;;;;;;;;5051696;28;20289;-79
2022/08/23 08:26:02;;;;;;;2.05;1.70;;;;;;;;;;5051479;28;20666;-80
2022/08/23 08:28:30;;;;;;;1.70;1.60;;;;;;;;;;5051399;28;20305;-80
2022/08/23 08:30:58;;;;;;;1.65;1.55;;;;;;;;;;5051777;28;20225;-80
2022/08/23 08:33:26;;;;;;;2.70;1.80;;;;;;;;;;5052449;28;20678;-80
2022/08/23 08:35:56;;;;;;;1.98;1.85;;;;;;;;;;5052247;28;20201;-79
2022/08/23 08:38:24;;;;;;;1.92;1.30;;;;;;;;;;5051467;28;20673;-79
2022/08/23 08:41:01;;;;;;;2.70;1.40;;;;;;;;;;5051656;28;20773;-79
2022/08/23 08:43:39;;;;;;;2.10;1.58;;;;;;;;;;5051664;28;20283;-79
2022/08/23 08:46:12;;;;;;;2.80;1.55;;;;;;;;;;5051684;28;20284;-80
2022/08/23 08:48:43;;;;;;;1.52;1.33;;;;;;;;;;5051781;28;20206;-80
2022/08/23 08:51:33;;;;;;;2.22;2.03;;;;;;;;;;5051633;28;20218;-79
2022/08/23 08:54:02;;;;;;;2.15;1.95;;;;;;;;;;5051539;28;20641;-79
2022/08/23 08:56:34;;;;;;;1.65;1.55;;;;;;;;;;5051209;28;20292;-78
2022/08/23 08:59:06;;;;;;;1.60;1.50;;;;;;;;;;5053372;28;20748;-79
2022/08/23 09:01:35;;;;;;;3.45;1.55;;;;;;;;;;5051256;28;20763;-79
2022/08/23 09:04:04;;;;;;;2.05;1.90;;;;;;;;;;5051303;28;20251;-79
2022/08/23 09:06:42;;;;;;;2.92;1.73;;;;;;;;;;5051242;28;20285;-79
2022/08/23 09:09:30;;;;;;;1.70;1.60;;;;;;;;;;5051588;28;20284;-80
2022/08/23 09:12:05;;;;;;;1.30;1.20;;;;;;;;;;5050817;28;20305;-79
2022/08/23 09:15:13;;;;;;;1.88;1.77;;;;;;;;;;5051279;28;20688;-79
2022/08/23 09:17:44;;;;;;;2.47;1.40;;;;;;;;;;5051115;28;20220;-80
2022/08/23 09:20:22;;;;;;;2.15;1.58;;;;;;;;;;5051002;28;20193;-80
2022/08/23 09:22:57;;;;;;;1.77;1.67;;;;;;;;;;5051259;28;20225;-80
2022/08/23 09:25:24;;;;;;;1.73;1.58;;;;;;;;;;5051450;28;20190;-79
2022/08/23 09:27:52;;;;;;;2.03;1.83;;;;;;;;;;5051289;28;20297;-79
2022/08/23 09:30:21;;;;;;;1.42;1.33;;;;;;;;;;5054946;28;20264;-79
2022/08/23 09:32:50;;;;;;;1.88;1.77;;;;;;;;;;5054997;28;20241;-80
2022/08/23 09:35:21;;;;;;;1.80;1.63;;;;;;;;;;5055758;28;20690;-79
2022/08/23 09:38:01;;;;;;;1.63;1.48;;;;;;;;;;5055764;28;20204;-80
2022/08/23 09:40:37;;;;;;;2.80;1.77;;;;;;;;;;5054943;28;20316;-81
2022/08/23 09:43:13;;;;;;;1.27;1.23;;;;;;;;;;5056585;28;20619;-80
2022/08/23 09:45:52;;;;;;;1.67;1.58;;;;;;;;;;5054942;28;20288;-80
2022/08/23 09:48:37;;;;;;;1.60;1.50;;;;;;;;;;5054377;28;20699;-80
2022/08/23 09:51:15;;;;;;;2.08;1.65;;;;;;;;;;5054607;28;20708;-80
2022/08/23 09:53:50;;;;;;;1.85;1.75;;;;;;;;;;5054902;28;20212;-80
2022/08/23 09:56:23;;;;;;;2.33;1.70;;;;;;;;;;5054523;28;20224;-80
2022/08/23 09:58:52;;;;;;;1.67;1.55;;;;;;;;;;5054261;28;20661;-80
2022/08/23 10:01:23;;;;;;;1.80;1.67;;;;;;;;;;5054478;28;20624;-80
2022/08/23 10:04:11;;;;;;;2.67;1.92;;;;;;;;;;5054483;28;20252;-82
2022/08/23 10:06:42;;;;;;;2.30;1.80;;;;;;;;;;5054733;28;20201;-80
2022/08/23 10:09:25;;;;;;;1.60;1.50;;;;;;;;;;5056032;28;20201;-80
2022/08/23 10:11:53;;;;;;;1.50;1.40;;;;;;;;;;5053996;28;20309;-81
2022/08/23 10:14:23;;;;;;;1.40;1.27;;;;;;;;;;5054019;28;20296;-80
2022/08/23 10:17:03;;;;;;;1.45;1.27;;;;;;;;;;5056617;28;20205;-81
2022/08/23 10:19:39;;;;;;;1.40;1.30;;;;;;;;;;5055297;28;20687;-81
2022/08/23 10:22:15;;;;;;;1.70;1.60;;;;;;;;;;5054788;28;20225;-81
2022/08/23 10:24:47;;;;;;;2.50;1.70;;;;;;;;;;5058009;28;20205;-82
2022/08/23 10:30:17;;;;;;;1.45;1.35;;;;;;;;;;5057001;28;20205;-81
2022/08/23 10:32:58;;;;;;;1.50;1.40;;;;;;;;;;5055610;28;20280;-81
2022/08/23 10:35:35;;;;;;;1.70;1.60;;;;;;;;;;5054133;28;20203;-81
2022/08/23 10:38:18;;;;;;;1.42;1.33;;;;;;;;;;5055765;28;20269;-82
2022/08/23 10:40:53;;;;;;;4.78;1.88;;;;;;;;;;5055201;28;20283;-81
2022/08/23 10:43:29;;;;;;;1.85;1.50;;;;;;;;;;5055645;28;20282;-80
2022/08/23 10:46:00;;;;;;;1.73;1.63;;;;;;;;;;5054850;28;20211;-82
2022/08/23 10:48:30;;;;;;;2.58;1.92;;;;;;;;;;5054347;28;20197;-80
2022/08/23 10:51:02;;;;;;;1.48;1.38;;;;;;;;;;5053929;28;20225;-81
2022/08/23 10:53:38;;;;;;;1.80;1.70;;;;;;;;;;5056431;28;20208;-80
2022/08/23 10:56:12;;;;;;;1.60;1.50;;;;;;;;;;5053928;28;20208;-81
2022/08/23 10:58:46;;;;;;;1.50;1.40;;;;;;;;;;5053940;28;20201;-81
2022/08/23 11:01:16;;;;;;;1.40;1.40;;;;;;;;;;5054620;28;20323;-80
2022/08/23 11:03:47;;;;;;;2.33;2.13;;;;;;;;;;5055215;28;20217;-81
2022/08/23 11:06:50;;;;;;;1.70;1.60;;;;;;;;;;5055468;28;20320;-81
2022/08/23 11:10:08;;;;;;;1.85;1.75;;;;;;;;;;5054448;28;20622;-81
2022/08/23 11:12:52;;;;;;;3.08;1.52;;;;;;;;;;5028648;28;20280;-81
2022/08/23 11:15:27;;;;;;;2.10;2.00;;;;;;;;;;5055352;28;20269;-82
2022/08/23 11:18:03;;;;;;;1.77;1.67;;;;;;;;;;5056872;28;20201;-81
2022/08/23 11:21:11;;;;;;;1.77;1.67;;;;;;;;;;5057576;28;20757;-81
2022/08/23 11:23:50;;;;;;;1.17;1.13;;;;;;;;;;5029827;28;20315;-82
2022/08/23 11:27:06;;;;;;;2.10;1.40;;;;;;;;;;5056342;28;20205;-82
2022/08/23 11:29:38;;;;;;;1.55;1.45;;;;;;;;;;4993363;28;20203;-82
2022/08/23 11:32:37;;;;;;;1.58;1.48;;;;;;;;;;5041437;28;20730;-82
2022/08/23 11:35:38;;;;;;;1.92;1.83;;;;;;;;;;5054988;28;20205;-81
2022/08/23 11:38:07;;;;;;;2.10;2.00;;;;;;;;;;5049647;28;20292;-81
2022/08/23 11:41:02;;;;;;;1.40;1.38;;;;;;;;;;5055570;28;20307;-82
2022/08/23 11:43:35;;;;;;;1.63;1.52;;;;;;;;;;5054038;28;20307;-82
2022/08/23 11:46:34;;;;;;;1.40;1.40;;;;;;;;;;5054344;28;20300;-81
2022/08/23 11:49:37;;;;;;;1.73;1.63;;;;;;;;;;5054406;28;20669;-81
2022/08/23 11:52:19;;;;;;;3.58;2.25;;;;;;;;;;5041280;28;20312;-82
2022/08/23 11:55:13;;;;;;;1.85;1.65;;;;;;;;;;5054328;28;20265;-81
2022/08/23 11:57:55;;;;;;;2.20;2.00;;;;;;;;;;5054022;28;20282;-81
2022/08/23 12:00:27;;;;;;;1.75;1.65;;;;;;;;;;5053339;28;20629;-82
2022/08/23 12:03:01;;;;;;;1.60;1.50;;;;;;;;;;5053926;28;20221;-81
2022/08/23 12:06:21;;;;;;;1.95;1.85;;;;;;;;;;5053576;28;20212;-82
2022/08/23 12:08:59;;;;;;;1.45;1.35;;;;;;;;;;5051935;28;20201;-83
2022/08/23 12:12:10;;;;;;;1.80;1.70;;;;;;;;;;5052977;28;20229;-81
2022/08/23 12:14:52;;;;;;;2.15;1.88;;;;;;;;;;5054150;28;20291;-81
2022/08/23 12:18:11;;;;;;;1.50;1.40;;;;;;;;;;5052923;28;20204;-81
2022/08/23 12:20:40;;;;;;;2.38;2.17;;;;;;;;;;5053264;28;20232;-82
2022/08/23 12:23:21;;;;;;;1.75;1.65;;;;;;;;;;5053087;28;20311;-80
2022/08/23 12:26:01;;;;;;;1.70;1.60;;;;;;;;;;5053860;28;20588;-81
2022/08/23 12:28:38;;;;;;;1.80;1.70;;;;;;;;;;5054337;28;20276;-81
2022/08/23 12:31:24;;;;;;;1.40;1.30;;;;;;;;;;5053694;28;20240;-80
2022/08/23 12:34:04;;;;;;;2.38;2.00;;;;;;;;;;5053925;28;20295;-81
2022/08/23 12:36:44;;;;;;;1.70;1.60;;;;;;;;;;5053381;28;20292;-82
2022/08/23 12:39:24;;;;;;;1.70;1.60;;;;;;;;;;5053218;28;20310;-80
2022/08/23 12:41:57;;;;;;;1.58;1.48;;;;;;;;;;5053899;28;20307;-80
2022/08/23 12:44:28;;;;;;;1.30;1.30;;;;;;;;;;5053398;28;20712;-81
2022/08/23 12:46:56;;;;;;;2.20;1.98;;;;;;;;;;5053057;28;20201;-82
2022/08/23 12:49:30;;;;;;;2.55;1.60;;;;;;;;;;5053558;28;20205;-82
2022/08/23 12:52:01;;;;;;;1.77;1.67;;;;;;;;;;5054052;28;20308;-81
2022/08/23 12:54:38;;;;;;;2.47;2.28;;;;;;;;;;5054308;28;20236;-80
2022/08/23 12:57:10;;;;;;;2.72;1.55;;;;;;;;;;5052864;28;20251;-81
2022/08/23 12:59:43;;;;;;;1.70;1.60;;;;;;;;;;5053757;28;20197;-81
2022/08/23 13:02:17;;;;;;;2.10;1.90;;;;;;;;;;5053333;28;20316;-81
2022/08/23 13:04:45;;;;;;;1.77;1.67;;;;;;;;;;5056271;28;20252;-83
2022/08/23 13:07:18;;;;;;;1.65;1.55;;;;;;;;;;5055941;28;20419;-80
2022/08/23 13:09:46;;;;;;;1.67;1.58;;;;;;;;;;5056896;28;20210;-81
2022/08/23 13:12:15;;;;;;;2.45;2.13;;;;;;;;;;5056795;28;20293;-81
2022/08/23 13:14:49;;;;;;;1.85;1.48;;;;;;;;;;5059300;28;20224;-81
2022/08/23 13:17:29;;;;;;;1.80;1.70;;;;;;;;;;5057382;28;20296;-82
2022/08/23 13:20:21;;;;;;;1.55;1.40;;;;;;;;;;5056975;28;20286;-81
2022/08/23 13:23:03;;;;;;;1.70;1.60;;;;;;;;;;5056431;28;20280;-81
2022/08/23 13:25:34;;;;;;;1.77;1.67;;;;;;;;;;5055813;28;20197;-82
2022/08/23 13:28:06;;;;;;;1.60;1.50;;;;;;;;;;5055598;28;20646;-80
2022/08/23 13:30:36;;;;;;;1.30;1.30;;;;;;;;;;5056569;28;20312;-81
2022/08/23 13:33:21;;;;;;;2.00;1.80;;;;;;;;;;5056232;28;20279;-81
2022/08/23 13:35:53;;;;;;;2.50;1.90;;;;;;;;;;5055990;28;20202;-81
2022/08/23 13:38:30;;;;;;;1.80;1.70;;;;;;;;;;5057519;28;20248;-80
2022/08/23 13:41:03;;;;;;;2.45;1.88;;;;;;;;;;5056841;28;20280;-81
2022/08/23 13:43:36;;;;;;;2.63;1.73;;;;;;;;;;5056894;28;20312;-81
2022/08/23 13:46:15;;;;;;;2.05;1.77;;;;;;;;;;5055718;28;20255;-80
2022/08/23 13:48:49;;;;;;;2.05;1.52;;;;;;;;;;5055927;28;20205;-81
2022/08/23 13:51:37;;;;;;;1.60;1.50;;;;;;;;;;5056039;28;20312;-80
2022/08/23 13:54:09;;;;;;;1.58;1.35;;;;;;;;;;5056722;28;20761;-79
2022/08/23 13:56:48;;;;;;;2.17;1.40;;;;;;;;;;5055495;28;20288;-80
2022/08/23 13:59:22;;;;;;;1.60;1.48;;;;;;;;;;5056652;28;20216;-80
2022/08/23 14:01:50;;;;;;;2.10;1.50;;;;;;;;;;5055781;28;20217;-80
2022/08/23 14:04:17;;;;;;;1.55;1.45;;;;;;;;;;5055078;28;20231;-80
2022/08/23 14:06:47;;;;;;;2.30;1.40;;;;;;;;;;5054031;28;20304;-79
2022/08/23 14:09:15;;;;;;;1.60;1.50;;;;;;;;;;5054459;28;20201;-79
2022/08/23 14:11:42;;;;;;;1.60;1.50;;;;;;;;;;5054444;28;20253;-79
2022/08/23 14:14:11;;;;;;;2.63;2.00;;;;;;;;;;5053908;28;20280;-81
2022/08/23 14:16:40;;;;;;;1.58;1.33;;;;;;;;;;5055044;28;20206;-81
2022/08/23 14:19:10;;;;;;;1.50;1.40;;;;;;;;;;5055387;28;20292;-81
2022/08/23 14:21:38;;;;;;;1.48;1.38;;;;;;;;;;5055341;28;20214;-81
2022/08/23 14:24:07;;;;;;;1.67;1.58;;;;;;;;;;5056523;28;20315;-79
2022/08/23 14:26:35;;;;;;;1.70;1.60;;;;;;;;;;5055364;28;20288;-81
2022/08/23 14:29:03;;;;;;;1.27;1.27;;;;;;;;;;5054175;28;20205;-80
2022/08/23 14:31:31;;;;;;;1.40;1.30;;;;;;;;;;5053757;28;20312;-80
2022/08/23 14:33:58;;;;;;;1.90;1.80;;;;;;;;;;5054214;28;20677;-80
2022/08/23 14:36:26;;;;;;;2.03;1.92;;;;;;;;;;5054223;28;20597;-80
2022/08/23 14:38:53;;;;;;;2.42;1.70;;;;;;;;;;5054306;28;20244;-80
2022/08/23 14:41:25;;;;;;;2.10;1.63;;;;;;;;;;5054341;28;20305;-80
2022/08/23 14:43:52;;;;;;;1.63;1.52;;;;;;;;;;5054032;28;20227;-80
2022/08/23 14:46:23;;;;;;;1.50;1.35;;;;;;;;;;5053952;28;20252;-79
2022/08/23 14:48:50;;;;;;;2.30;1.83;;;;;;;;;;5056278;28;20269;-82
2022/08/23 14:51:26;;;;;;;1.60;1.50;;;;;;;;;;5055129;28;20221;-81
2022/08/23 14:53:54;;;;;;;3.25;1.80;;;;;;;;;;5054651;28;20680;-80
2022/08/23 14:56:22;;;;;;;1.80;1.70;;;;;;;;;;5054110;28;20190;-80
2022/08/23 14:58:51;;;;;;;1.35;1.25;;;;;;;;;;5053480;28;20295;-80
2022/08/23 15:01:20;;;;;;;1.55;1.40;;;;;;;;;;5053905;28;20316;-81
2022/08/23 15:03:48;;;;;;;1.50;1.40;;;;;;;;;;5053840;28;20288;-81
2022/08/23 15:06:17;;;;;;;1.77;1.67;;;;;;;;;;5053192;28;20296;-79
2022/08/23 15:08:45;;;;;;;1.50;1.40;;;;;;;;;;5053259;28;20289;-80
2022/08/23 15:11:14;;;;;;;1.05;1.05;;;;;;;;;;5053145;28;20252;-80
2022/08/23 15:13:44;;;;;;;1.77;1.33;;;;;;;;;;5053948;28;20418;-80
2022/08/23 15:16:14;;;;;;;1.70;1.60;;;;;;;;;;5053372;28;20197;-80
2022/08/23 15:18:45;;;;;;;1.40;1.30;;;;;;;;;;5053458;28;20292;-80
2022/08/23 15:21:13;;;;;;;2.92;1.77;;;;;;;;;;5053718;28;20325;-79
2022/08/23 15:23:41;;;;;;;2.25;2.03;;;;;;;;;;5053565;28;20752;-80
2022/08/23 15:26:09;;;;;;;1.63;1.48;;;;;;;;;;5053305;28;20312;-80
2022/08/23 15:28:37;;;;;;;1.40;1.30;;;;;;;;;;5053502;28;20269;-79